createdAt,value
2019-03-12T00:00:06.109Z,1.50
2019-03-12T00:05:09.796Z,1.50
2019-03-12T00:10:13.486Z,1.50
2019-03-12T00:15:17.210Z,1.40
2019-03-12T00:20:20.888Z,1.50
2019-03-12T00:25:24.572Z,1.50
2019-03-12T00:30:28.252Z,1.50
2019-03-12T00:35:31.944Z,1.50
2019-03-12T00:40:35.753Z,1.50
2019-03-12T00:45:39.779Z,1.40
2019-03-12T00:50:43.545Z,1.50
2019-03-12T00:55:47.246Z,1.50
2019-03-12T01:00:51.201Z,1.50
2019-03-12T01:05:54.962Z,1.60
2019-03-12T01:10:58.645Z,1.60
2019-03-12T01:16:02.333Z,1.60
2019-03-12T01:21:06.022Z,1.60
2019-03-12T01:26:09.709Z,1.60
2019-03-12T01:31:13.398Z,1.60
2019-03-12T01:36:17.084Z,1.70
2019-03-12T01:41:20.859Z,1.70
2019-03-12T01:46:24.529Z,1.70
2019-03-12T01:51:31.016Z,1.70
2019-03-12T01:56:33.617Z,1.80
2019-03-12T02:01:37.446Z,1.80
2019-03-12T02:06:41.377Z,1.90
2019-03-12T02:11:45.117Z,1.80
2019-03-12T02:16:48.793Z,1.90
2019-03-12T02:21:52.503Z,1.90
2019-03-12T02:26:56.448Z,2.00
2019-03-12T02:32:00.223Z,1.90
2019-03-12T02:37:04.201Z,2.10
2019-03-12T02:42:12.303Z,2.10
2019-03-12T02:47:13.370Z,2.20
2019-03-12T02:52:17.057Z,2.20
2019-03-12T02:57:20.738Z,2.20
2019-03-12T03:02:24.450Z,2.30
2019-03-12T03:08:02.788Z,2.40
2019-03-12T03:13:06.810Z,2.40
2019-03-12T03:18:10.577Z,2.40
2019-03-12T03:23:14.274Z,2.50
2019-03-12T03:28:17.966Z,2.50
2019-03-12T03:33:21.654Z,2.60
2019-03-12T03:38:25.380Z,2.60
2019-03-12T03:43:29.075Z,2.60
2019-03-12T03:48:32.766Z,2.70
2019-03-12T03:53:36.454Z,2.70
2019-03-12T03:58:40.132Z,2.70
2019-03-12T04:03:43.809Z,2.70
2019-03-12T04:08:47.527Z,2.80
2019-03-12T04:13:51.277Z,2.80
2019-03-12T04:18:55.061Z,2.80
2019-03-12T04:24:10.384Z,2.80
2019-03-12T04:29:14.067Z,2.90
2019-03-12T04:34:33.431Z,2.90
2019-03-12T04:39:37.094Z,2.90
2019-03-12T04:44:40.778Z,2.90
2019-03-12T04:49:44.462Z,2.90
2019-03-12T04:54:48.150Z,2.90
2019-03-12T04:59:51.841Z,2.90
2019-03-12T05:04:55.517Z,2.90
2019-03-12T05:09:59.240Z,2.90
2019-03-12T05:15:02.988Z,2.90
2019-03-12T05:20:09.173Z,2.90
2019-03-12T05:25:13.137Z,2.90
2019-03-12T05:30:17.200Z,2.90
2019-03-12T05:35:20.913Z,2.90
2019-03-12T05:40:24.588Z,2.90
2019-03-12T05:45:28.297Z,2.90
2019-03-12T05:50:32.026Z,3.00
2019-03-12T05:55:35.811Z,3.00
2019-03-12T06:00:40.555Z,3.00
2019-03-12T06:05:44.230Z,2.90
2019-03-12T06:10:52.511Z,2.80
2019-03-12T06:15:53.551Z,2.80
2019-03-12T06:20:57.583Z,2.80
2019-03-12T06:26:01.690Z,2.80
2019-03-12T06:31:21.981Z,2.70
2019-03-12T06:36:33.848Z,2.70
2019-03-12T06:41:47.746Z,2.70
2019-03-12T06:47:08.361Z,2.80
2019-03-12T06:52:28.210Z,2.80
2019-03-12T06:57:55.806Z,2.90
2019-03-12T07:03:13.860Z,2.90
2019-03-12T07:08:35.470Z,3.00
2019-03-12T07:13:51.715Z,3.00
2019-03-12T07:19:20.626Z,3.10
2019-03-12T07:24:30.998Z,3.10
2019-03-12T07:29:56.130Z,3.10
2019-03-12T07:35:08.346Z,3.20
2019-03-12T07:40:30.623Z,3.20
2019-03-12T07:45:56.510Z,3.30
2019-03-12T07:51:20.142Z,3.40
2019-03-12T07:56:35.326Z,3.40
2019-03-12T08:01:45.293Z,3.50
2019-03-12T08:07:06.771Z,3.50
2019-03-12T08:12:17.351Z,3.60
2019-03-12T08:17:34.286Z,3.60
2019-03-12T08:22:45.850Z,3.70
2019-03-12T08:28:01.450Z,3.70
2019-03-12T08:33:23.152Z,3.80
2019-03-12T08:38:39.738Z,3.90
2019-03-12T08:44:01.587Z,3.90
2019-03-12T08:49:23.470Z,4.00
2019-03-12T08:54:32.865Z,4.10
2019-03-12T09:00:03.526Z,4.10
2019-03-12T09:05:24.956Z,4.30
2019-03-12T09:10:41.578Z,4.30
2019-03-12T09:15:52.378Z,4.40
2019-03-12T09:21:18.297Z,4.50
2019-03-12T09:26:29.099Z,4.60
2019-03-12T09:31:55.057Z,4.70
2019-03-12T09:37:16.394Z,4.80
2019-03-12T09:42:39.195Z,4.90
2019-03-12T09:48:04.833Z,5.00
2019-03-12T09:53:20.085Z,5.10
2019-03-12T09:58:49.198Z,5.20
2019-03-12T10:04:04.007Z,5.30
2019-03-12T10:09:27.634Z,5.40
2019-03-12T10:14:49.026Z,5.40
2019-03-12T10:20:10.960Z,5.50
2019-03-12T10:25:33.853Z,5.60
2019-03-12T10:30:47.813Z,5.70
2019-03-12T10:36:00.351Z,5.80
2019-03-12T10:41:24.504Z,5.80
2019-03-12T10:46:36.617Z,5.90
2019-03-12T10:51:41.574Z,5.90
2019-03-12T10:56:45.443Z,5.90
2019-03-12T11:01:49.173Z,5.90
2019-03-12T11:06:52.846Z,6.00
2019-03-12T11:11:56.912Z,6.00
2019-03-12T11:17:00.819Z,6.10
2019-03-12T11:22:04.595Z,6.10
2019-03-12T11:27:19.362Z,6.10
2019-03-12T11:32:23.176Z,6.20
2019-03-12T11:37:27.181Z,6.30
2019-03-12T11:42:31.090Z,6.40
2019-03-12T11:47:34.914Z,6.50
2019-03-12T11:52:39.001Z,6.50
2019-03-12T11:57:43.308Z,6.50
2019-03-12T12:02:59.014Z,6.60
2019-03-12T12:07:52.524Z,6.60
2019-03-12T12:12:56.381Z,6.60
2019-03-12T12:18:00.089Z,6.70
2019-03-12T12:23:05.083Z,6.70
2019-03-12T12:28:08.787Z,6.80
2019-03-12T12:33:12.584Z,6.80
2019-03-12T12:38:16.293Z,6.80
2019-03-12T12:43:20.009Z,6.90
2019-03-12T12:48:23.685Z,7.00
2019-03-12T12:53:28.949Z,7.00
2019-03-12T12:59:00.959Z,7.10
2019-03-12T13:04:04.803Z,7.20
2019-03-12T13:09:08.472Z,7.30
2019-03-12T13:14:40.941Z,7.30
2019-03-12T13:19:35.382Z,7.40
2019-03-12T13:24:43.107Z,7.40
2019-03-12T13:29:46.850Z,7.40
2019-03-12T13:34:53.469Z,7.40
2019-03-12T13:39:57.172Z,7.40
2019-03-12T13:45:01.381Z,7.40
2019-03-12T13:50:06.025Z,7.40
2019-03-12T13:55:11.122Z,7.50
2019-03-12T14:00:17.493Z,7.50
2019-03-12T14:05:21.190Z,7.50
2019-03-12T14:10:25.212Z,7.50
2019-03-12T14:15:30.410Z,7.50
2019-03-12T14:20:42.790Z,7.50
2019-03-12T14:25:46.616Z,7.60
2019-03-12T14:30:50.669Z,7.50
2019-03-12T14:35:54.520Z,7.60
2019-03-12T14:40:58.291Z,7.50
2019-03-12T14:46:02.109Z,7.50
2019-03-12T14:51:09.105Z,7.60
2019-03-12T14:56:12.789Z,7.50
2019-03-12T15:01:16.511Z,7.50
2019-03-12T15:06:20.439Z,7.50
2019-03-12T15:11:24.202Z,7.50
2019-03-12T15:16:27.896Z,7.50
2019-03-12T15:21:31.606Z,7.50
2019-03-12T15:26:35.686Z,7.50
2019-03-12T15:31:39.689Z,7.40
2019-03-12T15:36:45.326Z,7.40
2019-03-12T15:41:49.066Z,7.40
2019-03-12T15:46:53.264Z,7.30
2019-03-12T15:51:57.785Z,7.30
2019-03-12T15:57:01.466Z,7.30
2019-03-12T16:02:05.152Z,7.20
2019-03-12T16:07:08.891Z,7.20
2019-03-12T16:12:12.651Z,7.20
2019-03-12T16:17:16.318Z,7.20
2019-03-12T16:22:20.015Z,7.10
2019-03-12T16:27:23.685Z,7.10
2019-03-12T16:32:27.375Z,7.10
2019-03-12T16:37:31.356Z,7.00
2019-03-12T16:42:35.459Z,7.00
2019-03-12T16:47:39.802Z,6.90
2019-03-12T16:52:43.502Z,6.90
2019-03-12T16:57:47.326Z,6.90
2019-03-12T17:02:51.085Z,6.80
2019-03-12T17:07:54.850Z,6.80
2019-03-12T17:12:58.577Z,6.80
2019-03-12T17:18:02.295Z,6.70
2019-03-12T17:23:05.978Z,6.70
2019-03-12T17:28:09.667Z,6.70
2019-03-12T17:33:13.352Z,6.70
2019-03-12T17:38:17.047Z,6.60
2019-03-12T17:43:20.777Z,6.70
2019-03-12T17:48:24.458Z,6.60
2019-03-12T17:53:28.183Z,6.60
2019-03-12T17:58:31.922Z,6.60
2019-03-12T18:03:35.592Z,6.60
2019-03-12T18:08:39.667Z,6.50
2019-03-12T18:13:43.845Z,6.50
2019-03-12T18:18:47.672Z,6.50
2019-03-12T18:23:51.743Z,6.50
2019-03-12T18:28:58.950Z,6.50
2019-03-12T18:34:01.383Z,6.50
2019-03-12T18:39:07.631Z,6.40
2019-03-12T18:44:11.662Z,6.40
2019-03-12T18:49:15.736Z,6.40
2019-03-12T18:54:19.422Z,6.40
2019-03-12T18:59:23.101Z,6.40
2019-03-12T19:04:27.067Z,6.40
2019-03-12T19:09:30.757Z,6.40
2019-03-12T19:14:35.834Z,6.30
2019-03-12T19:19:39.500Z,6.30
2019-03-12T19:24:43.178Z,6.30
2019-03-12T19:29:46.935Z,6.30
2019-03-12T19:34:50.623Z,6.20
2019-03-12T19:39:54.401Z,6.20
2019-03-12T19:44:58.370Z,6.20
2019-03-12T19:50:02.054Z,6.20
2019-03-12T19:55:07.226Z,6.20
2019-03-12T20:00:14.426Z,6.20
2019-03-12T20:05:18.447Z,6.10
2019-03-12T20:10:55.771Z,6.10
2019-03-12T20:16:42.466Z,6.10
2019-03-12T20:22:49.072Z,6.10
2019-03-12T20:28:21.800Z,6.00
2019-03-12T20:34:18.089Z,6.00
2019-03-12T20:40:06.494Z,6.00
2019-03-12T20:45:53.087Z,6.00
2019-03-12T20:51:36.769Z,6.00
2019-03-12T20:57:17.708Z,5.90
2019-03-12T21:02:53.441Z,5.90
2019-03-12T21:08:43.898Z,5.90
2019-03-12T21:14:06.386Z,5.90
2019-03-12T21:19:44.809Z,5.90
2019-03-12T21:25:31.762Z,5.90
2019-03-12T21:30:35.439Z,5.90
2019-03-12T21:35:39.209Z,5.90
2019-03-12T21:40:42.947Z,5.90
2019-03-12T21:45:46.635Z,5.80
2019-03-12T21:50:50.310Z,5.90
2019-03-12T21:55:54.370Z,5.90
2019-03-12T22:00:58.422Z,5.90
2019-03-12T22:06:02.090Z,5.90
2019-03-12T22:11:05.850Z,5.90
2019-03-12T22:16:09.519Z,5.90
2019-03-12T22:21:14.834Z,5.90
2019-03-12T22:26:18.778Z,5.90
2019-03-12T22:31:22.453Z,5.90
2019-03-12T22:36:26.133Z,5.90
2019-03-12T22:41:36.053Z,6.00
2019-03-12T22:46:40.091Z,5.90
2019-03-12T22:51:43.762Z,5.90
2019-03-12T22:56:47.762Z,6.00
2019-03-12T23:01:51.570Z,6.00
2019-03-12T23:06:55.321Z,6.00
2019-03-12T23:11:59.009Z,6.00
2019-03-12T23:17:02.974Z,6.00
2019-03-12T23:22:06.805Z,6.00
2019-03-12T23:27:10.491Z,6.00
2019-03-12T23:32:15.666Z,5.90
2019-03-12T23:37:19.425Z,6.00
2019-03-12T23:42:23.116Z,6.00
2019-03-12T23:47:26.798Z,6.00
2019-03-12T23:52:30.550Z,5.90
2019-03-12T23:57:34.554Z,6.00
